createdAt,value
2019-04-06T00:00:08.150Z,99.90
2019-04-06T00:02:40.132Z,99.90
2019-04-06T00:05:11.503Z,99.90
2019-04-06T00:07:42.682Z,99.90
2019-04-06T00:10:14.053Z,99.90
2019-04-06T00:12:45.217Z,99.90
2019-04-06T00:15:16.441Z,99.90
2019-04-06T00:17:47.755Z,99.90
2019-04-06T00:20:19.000Z,99.90
2019-04-06T00:22:50.151Z,99.90
2019-04-06T00:25:21.334Z,99.90
2019-04-06T00:27:52.548Z,99.90
2019-04-06T00:30:23.788Z,99.90
2019-04-06T00:33:19.820Z,99.90
2019-04-06T00:35:51.063Z,99.90
2019-04-06T00:38:23.198Z,99.90
2019-04-06T00:40:54.446Z,99.90
2019-04-06T00:43:25.589Z,99.90
2019-04-06T00:45:56.777Z,99.90
2019-04-06T00:48:27.917Z,99.90
2019-04-06T00:50:59.059Z,99.90
2019-04-06T00:53:30.197Z,99.90
2019-04-06T00:56:02.120Z,99.90
2019-04-06T00:58:33.236Z,99.90
2019-04-06T01:01:04.677Z,99.90
2019-04-06T01:03:35.823Z,99.90
2019-04-06T01:06:07.123Z,99.90
2019-04-06T01:08:38.197Z,99.90
2019-04-06T01:11:09.265Z,99.90
2019-04-06T01:13:40.511Z,99.90
2019-04-06T01:16:11.590Z,99.90
2019-04-06T01:18:42.754Z,99.90
2019-04-06T01:21:13.899Z,99.90
2019-04-06T01:23:44.993Z,99.90
2019-04-06T01:26:19.338Z,99.90
2019-04-06T01:28:50.546Z,99.90
2019-04-06T01:31:21.692Z,99.90
2019-04-06T01:33:52.825Z,99.90
2019-04-06T01:36:24.285Z,99.90
2019-04-06T01:38:55.471Z,99.90
2019-04-06T01:41:26.740Z,99.90
2019-04-06T01:43:57.913Z,99.90
2019-04-06T01:46:28.968Z,99.90
2019-04-06T01:49:00.149Z,99.90
2019-04-06T01:51:31.382Z,99.90
2019-04-06T01:54:02.583Z,99.90
2019-04-06T01:56:33.680Z,99.90
2019-04-06T01:59:06.038Z,99.90
2019-04-06T02:01:41.310Z,99.90
2019-04-06T02:04:12.505Z,99.90
2019-04-06T02:06:43.539Z,99.90
2019-04-06T02:09:14.777Z,99.90
2019-04-06T02:11:45.933Z,99.90
2019-04-06T02:14:17.052Z,99.90
2019-04-06T02:16:48.199Z,99.90
2019-04-06T02:19:19.436Z,99.90
2019-04-06T02:21:50.632Z,99.90
2019-04-06T02:24:21.658Z,99.90
2019-04-06T02:26:52.805Z,99.90
2019-04-06T02:29:23.919Z,99.90
2019-04-06T02:32:22.950Z,99.90
2019-04-06T02:35:25.053Z,99.90
2019-04-06T02:38:23.946Z,99.90
2019-04-06T02:41:01.055Z,99.90
2019-04-06T02:43:34.041Z,99.90
2019-04-06T02:46:05.247Z,99.90
2019-04-06T02:48:36.451Z,99.90
2019-04-06T02:51:07.658Z,99.90
2019-04-06T02:53:38.852Z,99.90
2019-04-06T02:56:09.932Z,99.90
2019-04-06T02:58:41.213Z,99.90
2019-04-06T03:01:12.250Z,99.90
2019-04-06T03:03:43.333Z,99.90
2019-04-06T03:06:14.381Z,99.90
2019-04-06T03:08:46.715Z,99.90
2019-04-06T03:11:17.896Z,99.90
2019-04-06T03:13:49.043Z,99.90
2019-04-06T03:16:20.067Z,99.90
2019-04-06T03:18:51.119Z,99.90
2019-04-06T03:21:22.279Z,99.90
2019-04-06T03:23:53.359Z,99.90
2019-04-06T03:26:24.455Z,99.90
2019-04-06T03:28:55.730Z,99.90
2019-04-06T03:31:27.823Z,99.90
2019-04-06T03:33:59.672Z,99.90
2019-04-06T03:36:30.772Z,99.90
2019-04-06T03:39:01.887Z,99.90
2019-04-06T03:41:34.205Z,99.90
2019-04-06T03:44:05.600Z,99.90
2019-04-06T03:46:36.843Z,99.90
2019-04-06T03:49:07.963Z,99.90
2019-04-06T03:51:38.985Z,99.90
2019-04-06T03:54:10.072Z,99.90
2019-04-06T03:56:41.139Z,99.90
2019-04-06T03:59:12.272Z,99.90
2019-04-06T04:01:43.294Z,99.90
2019-04-06T04:04:14.324Z,99.90
2019-04-06T04:06:45.436Z,99.90
2019-04-06T04:09:16.448Z,99.90
2019-04-06T04:11:47.543Z,99.90
2019-04-06T04:14:18.685Z,99.90
2019-04-06T04:16:50.824Z,99.90
2019-04-06T04:19:21.970Z,99.90
2019-04-06T04:21:53.069Z,99.90
2019-04-06T04:24:24.099Z,99.90
2019-04-06T04:26:55.196Z,99.90
2019-04-06T04:29:26.254Z,99.90
2019-04-06T04:31:57.296Z,99.90
2019-04-06T04:34:28.624Z,99.90
2019-04-06T04:36:59.782Z,99.90
2019-04-06T04:39:31.049Z,99.90
2019-04-06T04:42:02.438Z,99.90
2019-04-06T04:44:34.778Z,99.90
2019-04-06T04:47:05.827Z,99.90
2019-04-06T04:49:37.112Z,99.90
2019-04-06T04:52:08.170Z,99.90
2019-04-06T04:54:39.248Z,99.90
2019-04-06T04:57:10.535Z,99.90
2019-04-06T04:59:41.767Z,99.90
2019-04-06T05:02:12.892Z,99.90
2019-04-06T05:04:44.053Z,99.90
2019-04-06T05:07:15.172Z,99.90
2019-04-06T05:09:46.289Z,99.90
2019-04-06T05:12:17.455Z,99.90
2019-04-06T05:15:04.852Z,99.90
2019-04-06T05:17:36.238Z,99.90
2019-04-06T05:20:09.857Z,99.90
2019-04-06T05:22:40.999Z,99.90
2019-04-06T05:25:12.373Z,99.90
2019-04-06T05:27:52.043Z,99.90
2019-04-06T05:30:16.522Z,99.90
2019-04-06T05:32:47.558Z,99.90
2019-04-06T05:35:18.658Z,99.90
2019-04-06T05:37:49.787Z,99.90
2019-04-06T05:40:21.100Z,99.90
2019-04-06T05:42:52.324Z,99.90
2019-04-06T05:45:23.385Z,99.90
2019-04-06T05:47:54.602Z,99.90
2019-04-06T05:50:25.754Z,99.90
2019-04-06T05:52:56.910Z,99.90
2019-04-06T05:55:28.227Z,99.90
2019-04-06T05:58:03.918Z,99.90
2019-04-06T06:00:33.348Z,99.90
2019-04-06T06:03:06.276Z,99.90
2019-04-06T06:05:41.011Z,99.90
2019-04-06T06:08:11.575Z,99.90
2019-04-06T06:10:42.791Z,99.90
2019-04-06T06:13:14.719Z,99.90
2019-04-06T06:15:46.042Z,99.90
2019-04-06T06:18:26.444Z,99.90
2019-04-06T06:20:51.199Z,99.90
2019-04-06T06:23:22.934Z,99.90
2019-04-06T06:25:56.277Z,99.90
2019-04-06T06:28:30.678Z,99.90
2019-04-06T06:31:02.334Z,99.90
2019-04-06T06:33:35.852Z,99.90
2019-04-06T06:36:07.530Z,99.90
2019-04-06T06:38:39.303Z,99.90
2019-04-06T06:41:11.317Z,99.90
2019-04-06T06:43:45.096Z,99.90
2019-04-06T06:46:15.804Z,99.90
2019-04-06T06:48:49.452Z,99.90
2019-04-06T06:51:24.965Z,99.90
2019-04-06T06:53:56.532Z,99.90
2019-04-06T06:56:28.902Z,99.90
2019-04-06T06:59:00.276Z,99.90
2019-04-06T07:01:33.133Z,99.90
2019-04-06T07:04:07.398Z,99.90
2019-04-06T07:06:38.700Z,99.90
2019-04-06T07:09:10.084Z,99.90
2019-04-06T07:11:41.356Z,99.90
2019-04-06T07:14:15.329Z,99.90
2019-04-06T07:16:47.840Z,99.90
2019-04-06T07:19:19.589Z,99.90
2019-04-06T07:21:53.483Z,99.90
2019-04-06T07:24:25.373Z,99.90
2019-04-06T07:26:56.515Z,99.90
2019-04-06T07:29:27.893Z,99.90
2019-04-06T07:31:59.329Z,99.90
2019-04-06T07:34:34.248Z,99.90
2019-04-06T07:37:05.606Z,99.90
2019-04-06T07:39:36.977Z,99.90
2019-04-06T07:42:08.189Z,99.90
2019-04-06T07:44:39.307Z,99.90
2019-04-06T07:47:10.605Z,99.90
2019-04-06T07:49:42.813Z,99.90
2019-04-06T07:52:14.155Z,99.90
2019-04-06T07:54:45.433Z,99.90
2019-04-06T07:57:16.553Z,99.90
2019-04-06T07:59:47.906Z,99.90
2019-04-06T08:02:19.528Z,99.90
2019-04-06T08:04:50.849Z,99.90
2019-04-06T08:07:33.768Z,99.90
2019-04-06T08:10:05.760Z,99.90
2019-04-06T08:12:37.119Z,99.90
2019-04-06T08:15:09.177Z,99.90
2019-04-06T08:17:40.728Z,99.90
2019-04-06T08:20:11.975Z,99.90
2019-04-06T08:22:43.193Z,98.70
2019-04-06T08:25:15.387Z,98.10
2019-04-06T08:27:47.571Z,98.60
2019-04-06T08:30:18.917Z,98.00
2019-04-06T08:32:50.115Z,97.10
2019-04-06T08:35:26.185Z,95.10
2019-04-06T08:37:54.056Z,93.40
2019-04-06T08:40:25.513Z,95.20
2019-04-06T08:42:56.921Z,94.30
2019-04-06T08:45:28.122Z,92.60
2019-04-06T08:47:59.497Z,91.50
2019-04-06T08:50:30.669Z,90.30
2019-04-06T08:53:02.008Z,90.70
2019-04-06T08:55:33.295Z,90.00
2019-04-06T08:58:04.503Z,91.00
2019-04-06T09:00:35.710Z,87.90
2019-04-06T09:03:06.894Z,84.90
2019-04-06T09:05:38.084Z,85.60
2019-04-06T09:08:09.128Z,90.10
2019-04-06T09:10:40.201Z,86.70
2019-04-06T09:13:11.664Z,83.00
2019-04-06T09:15:42.840Z,84.30
2019-04-06T09:18:13.954Z,82.00
2019-04-06T09:20:46.259Z,79.70
2019-04-06T09:23:17.555Z,81.50
2019-04-06T09:25:48.691Z,75.80
2019-04-06T09:28:19.877Z,73.10
2019-04-06T09:30:51.319Z,74.40
2019-04-06T09:33:22.474Z,73.80
2019-04-06T09:35:53.585Z,74.20
2019-04-06T09:38:24.929Z,73.70
2019-04-06T09:40:56.307Z,73.20
2019-04-06T09:43:28.154Z,72.80
2019-04-06T09:46:24.079Z,73.10
2019-04-06T09:49:14.770Z,70.50
2019-04-06T09:51:53.031Z,70.20
2019-04-06T09:54:39.280Z,72.00
2019-04-06T09:57:28.147Z,70.90
2019-04-06T10:00:21.227Z,70.50
2019-04-06T10:03:20.207Z,68.30
2019-04-06T10:06:09.040Z,67.30
2019-04-06T10:09:09.250Z,69.50
2019-04-06T10:11:58.394Z,70.00
2019-04-06T10:14:52.687Z,69.00
2019-04-06T10:17:58.174Z,68.60
2019-04-06T10:20:55.956Z,68.00
2019-04-06T10:23:51.510Z,67.00
2019-04-06T10:26:44.697Z,66.50
2019-04-06T10:29:46.873Z,68.60
2019-04-06T10:32:19.818Z,65.30
2019-04-06T10:35:15.974Z,63.60
2019-04-06T10:38:03.283Z,64.80
2019-04-06T10:40:47.063Z,63.40
2019-04-06T10:43:35.720Z,65.20
2019-04-06T10:46:14.889Z,63.20
2019-04-06T10:49:10.868Z,63.10
2019-04-06T10:52:16.309Z,61.20
2019-04-06T10:55:06.679Z,60.80
2019-04-06T10:58:06.226Z,61.10
2019-04-06T11:00:56.645Z,61.70
2019-04-06T11:03:33.954Z,62.10
2019-04-06T11:06:51.396Z,61.10
2019-04-06T11:09:40.427Z,61.10
2019-04-06T11:12:33.622Z,59.90
2019-04-06T11:15:22.838Z,60.70
2019-04-06T11:18:11.815Z,59.50
2019-04-06T11:21:03.617Z,59.70
2019-04-06T11:23:57.019Z,59.80
2019-04-06T11:26:47.034Z,60.10
2019-04-06T11:29:37.218Z,60.60
2019-04-06T11:32:30.300Z,61.20
2019-04-06T11:35:31.108Z,60.60
2019-04-06T11:38:27.745Z,60.00
2019-04-06T11:41:24.328Z,59.80
2019-04-06T11:44:26.646Z,60.80
2019-04-06T11:47:15.702Z,59.60
2019-04-06T11:50:15.055Z,59.50
2019-04-06T11:53:05.414Z,59.90
2019-04-06T11:55:52.743Z,60.30
2019-04-06T11:58:56.803Z,62.60
2019-04-06T12:01:38.210Z,61.90
2019-04-06T12:04:20.963Z,61.30
2019-04-06T12:07:17.139Z,61.10
2019-04-06T12:09:54.944Z,59.40
2019-04-06T12:12:40.727Z,58.60
2019-04-06T12:15:32.303Z,57.80
2019-04-06T12:18:11.390Z,57.50
2019-04-06T12:21:10.750Z,56.80
2019-04-06T12:24:05.445Z,58.00
2019-04-06T12:27:04.178Z,59.20
2019-04-06T12:30:10.286Z,61.10
2019-04-06T12:33:04.630Z,59.50
2019-04-06T12:35:49.869Z,58.70
2019-04-06T12:38:43.277Z,57.60
2019-04-06T12:41:40.050Z,59.10
2019-04-06T12:44:20.011Z,56.40
2019-04-06T12:47:09.253Z,56.40
2019-04-06T12:49:58.309Z,55.80
2019-04-06T12:52:38.104Z,56.60
2019-04-06T12:55:20.118Z,55.60
2019-04-06T12:58:13.652Z,55.40
2019-04-06T13:01:15.580Z,54.70
2019-04-06T13:04:09.741Z,54.60
2019-04-06T13:07:28.479Z,53.70
2019-04-06T13:10:26.189Z,55.30
2019-04-06T13:13:22.680Z,57.10
2019-04-06T13:15:59.233Z,57.00
2019-04-06T13:18:42.357Z,57.00
2019-04-06T13:21:31.468Z,56.60
2019-04-06T13:24:20.559Z,56.00
2019-04-06T13:27:09.567Z,56.30
2019-04-06T13:30:08.905Z,56.50
2019-04-06T13:33:01.310Z,55.50
2019-04-06T13:35:54.513Z,55.70
2019-04-06T13:38:43.427Z,55.60
2019-04-06T13:41:33.659Z,54.60
2019-04-06T13:44:32.924Z,56.00
2019-04-06T13:47:29.987Z,54.60
2019-04-06T13:50:19.115Z,54.50
2019-04-06T13:53:09.253Z,54.90
2019-04-06T13:56:03.034Z,55.80
2019-04-06T13:58:57.399Z,56.30
2019-04-06T14:01:51.270Z,55.90
2019-04-06T14:05:05.135Z,56.60
2019-04-06T14:08:04.404Z,55.40
2019-04-06T14:11:05.582Z,55.20
2019-04-06T14:14:20.509Z,55.80
2019-04-06T14:17:19.574Z,55.40
2019-04-06T14:20:15.103Z,57.00
2019-04-06T14:23:08.543Z,57.80
2019-04-06T14:26:06.457Z,58.20
2019-04-06T14:29:05.450Z,59.00
2019-04-06T14:32:00.626Z,59.30
2019-04-06T14:34:49.925Z,60.90
2019-04-06T14:37:43.595Z,59.20
2019-04-06T14:40:30.617Z,58.90
2019-04-06T14:43:29.856Z,58.60
2019-04-06T14:46:26.744Z,57.40
2019-04-06T14:49:28.519Z,57.10
2019-04-06T14:52:14.037Z,57.10
2019-04-06T14:55:02.938Z,57.10
2019-04-06T14:57:46.505Z,57.10
2019-04-06T15:00:34.135Z,57.50
2019-04-06T15:03:22.591Z,57.00
2019-04-06T15:06:16.278Z,57.40
2019-04-06T15:09:07.489Z,58.20
2019-04-06T15:12:06.952Z,59.80
2019-04-06T15:14:53.150Z,60.30
2019-04-06T15:17:49.415Z,61.50
2019-04-06T15:20:33.905Z,62.80
2019-04-06T15:23:23.051Z,62.70
2019-04-06T15:26:01.907Z,63.40
2019-04-06T15:29:04.589Z,63.00
2019-04-06T15:31:53.706Z,62.30
2019-04-06T15:34:43.728Z,62.30
2019-04-06T15:37:23.667Z,62.20
2019-04-06T15:40:12.342Z,62.60
2019-04-06T15:42:54.115Z,64.10
2019-04-06T15:45:38.474Z,65.00
2019-04-06T15:48:37.487Z,64.50
2019-04-06T15:51:17.969Z,65.40
2019-04-06T15:54:01.137Z,65.30
2019-04-06T15:56:53.882Z,67.10
2019-04-06T15:59:42.528Z,67.50
2019-04-06T16:02:32.662Z,68.30
2019-04-06T16:05:28.418Z,68.60
2019-04-06T16:08:31.046Z,68.70
2019-04-06T16:11:21.155Z,68.40
2019-04-06T16:14:21.615Z,70.80
2019-04-06T16:17:05.197Z,72.40
2019-04-06T16:19:45.498Z,74.70
2019-04-06T16:22:34.634Z,78.20
2019-04-06T16:25:40.844Z,81.70
2019-04-06T16:28:23.505Z,84.80
2019-04-06T16:31:39.742Z,89.60
2019-04-06T16:34:38.549Z,91.20
2019-04-06T16:37:28.641Z,93.40
2019-04-06T16:40:34.444Z,95.40
2019-04-06T16:43:32.150Z,97.10
2019-04-06T16:46:25.905Z,98.60
2019-04-06T16:49:18.834Z,99.40
2019-04-06T16:52:15.541Z,99.90
2019-04-06T16:54:55.892Z,99.90
2019-04-06T16:57:39.403Z,99.90
2019-04-06T17:00:27.496Z,99.90
2019-04-06T17:03:19.515Z,99.90
2019-04-06T17:06:07.995Z,99.90
2019-04-06T17:09:10.045Z,99.90
2019-04-06T17:12:12.301Z,99.90
2019-04-06T17:15:08.369Z,99.90
2019-04-06T17:17:53.751Z,99.90
2019-04-06T17:20:48.436Z,99.90
2019-04-06T17:23:46.149Z,99.90
2019-04-06T17:26:26.801Z,99.90
2019-04-06T17:29:29.110Z,99.90
2019-04-06T17:32:06.479Z,99.90
2019-04-06T17:34:57.184Z,99.90
2019-04-06T17:38:00.301Z,99.90
2019-04-06T17:40:37.927Z,99.90
2019-04-06T17:43:37.247Z,99.90
2019-04-06T17:46:27.763Z,99.90
2019-04-06T17:49:18.045Z,99.90
2019-04-06T17:52:00.236Z,99.90
2019-04-06T17:54:43.385Z,99.90
2019-04-06T17:57:36.653Z,99.90
2019-04-06T18:00:23.324Z,99.90
2019-04-06T18:03:07.985Z,99.90
2019-04-06T18:06:00.250Z,99.90
2019-04-06T18:08:46.478Z,99.90
2019-04-06T18:11:35.725Z,99.90
2019-04-06T18:14:07.190Z,99.90
2019-04-06T18:16:38.597Z,99.90
2019-04-06T18:19:10.213Z,99.90
2019-04-06T18:21:41.423Z,99.90
2019-04-06T18:24:12.634Z,99.90
2019-04-06T18:26:43.780Z,99.90
2019-04-06T18:29:15.157Z,99.90
2019-04-06T18:32:14.325Z,99.90
2019-04-06T18:34:46.121Z,99.90
2019-04-06T18:37:36.792Z,99.90
2019-04-06T18:40:18.953Z,99.90
2019-04-06T18:42:50.673Z,99.90
2019-04-06T18:45:21.994Z,99.90
2019-04-06T18:47:53.270Z,99.90
2019-04-06T18:50:34.179Z,99.90
2019-04-06T18:52:58.531Z,99.90
2019-04-06T18:55:29.875Z,99.90
2019-04-06T18:58:10.590Z,99.90
2019-04-06T19:00:34.583Z,99.90
2019-04-06T19:03:14.718Z,99.90
2019-04-06T19:05:39.245Z,99.90
2019-04-06T19:08:10.569Z,99.90
2019-04-06T19:10:41.825Z,99.90
2019-04-06T19:13:13.581Z,99.90
2019-04-06T19:15:44.722Z,99.90
2019-04-06T19:18:15.908Z,99.90
2019-04-06T19:20:47.343Z,99.90
2019-04-06T19:23:18.676Z,99.90
2019-04-06T19:25:50.016Z,99.90
2019-04-06T19:28:21.280Z,99.90
2019-04-06T19:30:52.558Z,99.90
2019-04-06T19:33:25.805Z,99.90
2019-04-06T19:35:56.656Z,99.90
2019-04-06T19:38:27.949Z,99.90
2019-04-06T19:40:59.713Z,99.90
2019-04-06T19:43:31.001Z,99.90
2019-04-06T19:46:02.283Z,99.90
2019-04-06T19:48:33.733Z,99.90
2019-04-06T19:51:05.150Z,99.90
2019-04-06T19:53:39.074Z,99.90
2019-04-06T19:56:12.040Z,99.90
2019-04-06T19:58:56.261Z,99.90
2019-04-06T20:01:42.197Z,99.90
2019-04-06T20:04:21.741Z,99.90
2019-04-06T20:10:25.552Z,99.90
2019-04-06T20:12:57.199Z,99.90
2019-04-06T20:15:28.780Z,99.90
2019-04-06T20:18:00.150Z,99.90
2019-04-06T20:20:31.546Z,99.90
2019-04-06T20:23:02.835Z,99.90
2019-04-06T20:25:36.182Z,99.90
2019-04-06T20:28:07.704Z,99.90
2019-04-06T20:30:39.094Z,99.90
2019-04-06T20:33:10.725Z,99.90
2019-04-06T20:35:42.029Z,99.90
2019-04-06T20:38:13.265Z,99.90
2019-04-06T20:40:44.697Z,99.90
2019-04-06T20:43:16.375Z,99.90
2019-04-06T20:45:47.788Z,99.90
2019-04-06T20:48:19.368Z,99.90
2019-04-06T20:50:50.785Z,99.90
2019-04-06T20:53:22.660Z,99.90
2019-04-06T20:55:54.216Z,99.90
2019-04-06T20:58:25.947Z,99.90
2019-04-06T21:00:57.019Z,99.90
2019-04-06T21:03:28.285Z,99.90
2019-04-06T21:05:59.479Z,99.90
2019-04-06T21:08:30.921Z,99.90
2019-04-06T21:11:02.057Z,99.90
2019-04-06T21:13:33.307Z,99.90
2019-04-06T21:16:04.543Z,99.90
2019-04-06T21:18:35.726Z,99.90
2019-04-06T21:21:07.826Z,99.90
2019-04-06T21:23:39.156Z,99.90
2019-04-06T21:26:10.876Z,99.90
2019-04-06T21:28:42.125Z,99.90
2019-04-06T21:31:13.328Z,99.90
2019-04-06T21:33:45.844Z,99.90
2019-04-06T21:36:17.483Z,99.90
2019-04-06T21:38:48.664Z,99.90
2019-04-06T21:41:19.713Z,99.90
2019-04-06T21:43:51.015Z,99.90
2019-04-06T21:46:22.373Z,99.90
2019-04-06T21:48:53.523Z,99.90
2019-04-06T21:51:24.689Z,99.90
2019-04-06T21:53:56.308Z,99.90
2019-04-06T21:56:27.505Z,99.90
2019-04-06T21:58:58.591Z,99.90
2019-04-06T22:01:29.850Z,99.90
2019-04-06T22:04:01.481Z,99.90
2019-04-06T22:06:32.631Z,99.90
2019-04-06T22:09:04.772Z,99.90
2019-04-06T22:11:37.096Z,99.90
2019-04-06T22:14:09.258Z,99.90
2019-04-06T22:16:43.051Z,99.90
2019-04-06T22:19:20.440Z,99.90
2019-04-06T22:21:58.700Z,99.90
2019-04-06T22:24:31.546Z,99.90
2019-04-06T22:27:03.107Z,99.90
2019-04-06T22:29:34.364Z,99.90
2019-04-06T22:32:06.703Z,99.90
2019-04-06T22:34:40.222Z,99.90
2019-04-06T22:37:11.808Z,99.90
2019-04-06T22:39:43.315Z,99.90
2019-04-06T22:42:14.510Z,99.90
2019-04-06T22:44:46.381Z,99.90
2019-04-06T22:47:17.560Z,99.90
2019-04-06T22:49:48.732Z,99.90
2019-04-06T22:52:21.108Z,99.90
2019-04-06T22:54:52.466Z,99.90
2019-04-06T22:57:23.920Z,99.90
2019-04-06T22:59:55.263Z,99.90
2019-04-06T23:02:28.142Z,99.90
2019-04-06T23:05:24.454Z,99.90
2019-04-06T23:07:56.138Z,99.90
2019-04-06T23:10:27.424Z,99.90
2019-04-06T23:12:58.610Z,99.90
2019-04-06T23:15:30.320Z,99.90
2019-04-06T23:18:01.522Z,99.90
2019-04-06T23:20:32.656Z,99.90
2019-04-06T23:23:03.791Z,99.90
2019-04-06T23:25:35.961Z,99.90
2019-04-06T23:28:07.084Z,99.90
2019-04-06T23:30:38.499Z,99.90
2019-04-06T23:33:09.699Z,99.90
2019-04-06T23:35:41.286Z,99.90
2019-04-06T23:38:13.273Z,99.90
2019-04-06T23:40:44.429Z,99.90
2019-04-06T23:43:16.170Z,99.90
2019-04-06T23:45:47.528Z,99.90
2019-04-06T23:48:18.837Z,99.90
2019-04-06T23:50:51.603Z,99.90
2019-04-06T23:53:23.138Z,99.90
2019-04-06T23:55:54.307Z,99.90
2019-04-06T23:58:25.686Z,99.90
